createdAt,value
2019-05-25T00:00:07.229Z,14.32
2019-05-25T00:02:38.801Z,14.33
2019-05-25T00:05:10.684Z,14.33
2019-05-25T00:07:42.128Z,14.29
2019-05-25T00:10:14.200Z,14.31
2019-05-25T00:12:45.625Z,14.27
2019-05-25T00:15:17.227Z,14.35
2019-05-25T00:17:48.729Z,14.36
2019-05-25T00:20:20.229Z,14.28
2019-05-25T00:22:51.798Z,14.27
2019-05-25T00:25:23.301Z,14.27
2019-05-25T00:27:54.701Z,14.27
2019-05-25T00:30:26.479Z,14.30
2019-05-25T00:32:58.603Z,14.34
2019-05-25T00:35:30.227Z,14.42
2019-05-25T00:38:01.800Z,14.49
2019-05-25T00:40:33.339Z,14.60
2019-05-25T00:43:05.069Z,14.64
2019-05-25T00:45:36.516Z,14.62
2019-05-25T00:48:07.948Z,14.58
2019-05-25T00:50:39.454Z,14.59
2019-05-25T00:53:10.942Z,14.79
2019-05-25T00:55:42.627Z,14.85
2019-05-25T00:58:14.168Z,14.83
2019-05-25T01:00:45.659Z,14.81
2019-05-25T01:03:17.072Z,14.91
2019-05-25T01:05:48.670Z,14.91
2019-05-25T01:08:20.164Z,14.77
2019-05-25T01:10:51.802Z,14.79
2019-05-25T01:13:23.282Z,14.81
2019-05-25T01:15:54.806Z,14.76
2019-05-25T01:18:26.578Z,14.84
2019-05-25T01:20:58.112Z,14.93
2019-05-25T01:23:29.601Z,14.87
2019-05-25T01:26:01.141Z,14.75
2019-05-25T01:28:32.640Z,14.82
2019-05-25T01:31:04.470Z,14.90
2019-05-25T01:33:36.033Z,14.73
2019-05-25T01:36:07.754Z,14.75
2019-05-25T01:38:39.884Z,14.95
2019-05-25T01:41:11.566Z,14.87
2019-05-25T01:43:43.002Z,14.94
2019-05-25T01:46:14.534Z,14.94
2019-05-25T01:48:46.396Z,15.00
2019-05-25T01:51:18.094Z,14.99
2019-05-25T01:53:49.885Z,15.05
2019-05-25T01:56:21.437Z,15.10
2019-05-25T01:58:53.048Z,15.04
2019-05-25T02:01:24.522Z,15.11
2019-05-25T02:03:56.656Z,15.12
2019-05-25T02:06:28.093Z,15.08
2019-05-25T02:09:01.083Z,14.95
2019-05-25T02:11:33.147Z,14.87
2019-05-25T02:14:04.908Z,14.84
2019-05-25T02:16:36.572Z,14.88
2019-05-25T02:19:08.262Z,14.82
2019-05-25T02:21:39.671Z,14.81
2019-05-25T02:24:11.163Z,14.80
2019-05-25T02:26:42.704Z,14.79
2019-05-25T02:29:14.196Z,14.82
2019-05-25T02:31:45.698Z,14.81
2019-05-25T02:34:17.446Z,14.77
2019-05-25T02:36:48.845Z,14.72
2019-05-25T02:39:20.610Z,14.68
2019-05-25T02:41:52.169Z,14.62
2019-05-25T02:44:23.698Z,14.83
2019-05-25T02:46:55.141Z,14.76
2019-05-25T02:49:26.715Z,14.70
2019-05-25T02:51:58.444Z,14.67
2019-05-25T02:54:31.010Z,14.56
2019-05-25T02:57:02.712Z,14.51
2019-05-25T02:59:34.242Z,14.40
2019-05-25T03:02:05.803Z,14.15
2019-05-25T03:04:37.360Z,14.20
2019-05-25T03:07:09.637Z,14.25
2019-05-25T03:09:42.575Z,14.25
2019-05-25T03:12:14.624Z,14.21
2019-05-25T03:14:46.198Z,14.19
2019-05-25T03:17:18.111Z,14.24
2019-05-25T03:19:49.826Z,14.23
2019-05-25T03:22:21.356Z,14.21
2019-05-25T03:24:52.902Z,14.20
2019-05-25T03:27:24.625Z,14.24
2019-05-25T03:29:56.155Z,14.23
2019-05-25T03:32:27.736Z,14.23
2019-05-25T03:34:59.627Z,14.23
2019-05-25T03:37:31.307Z,14.29
2019-05-25T03:40:02.884Z,14.26
2019-05-25T03:42:36.532Z,14.18
2019-05-25T03:45:08.587Z,14.07
2019-05-25T03:47:40.183Z,14.31
2019-05-25T03:50:12.945Z,14.35
2019-05-25T03:52:44.502Z,14.28
2019-05-25T03:55:16.521Z,14.27
2019-05-25T03:57:48.296Z,14.24
2019-05-25T04:00:34.016Z,14.15
2019-05-25T04:03:06.361Z,14.10
2019-05-25T04:05:37.947Z,14.16
2019-05-25T04:08:09.735Z,14.21
2019-05-25T04:10:41.262Z,14.25
2019-05-25T04:13:13.066Z,14.32
2019-05-25T04:15:44.784Z,14.39
2019-05-25T04:18:17.127Z,14.43
2019-05-25T04:20:48.724Z,14.51
2019-05-25T04:23:21.819Z,14.53
2019-05-25T04:25:53.324Z,14.63
2019-05-25T04:28:24.887Z,14.72
2019-05-25T04:30:56.386Z,14.86
2019-05-25T04:33:27.856Z,14.91
2019-05-25T04:35:59.621Z,14.95
2019-05-25T04:38:31.242Z,14.97
2019-05-25T04:41:02.691Z,15.02
2019-05-25T04:43:34.229Z,15.06
2019-05-25T04:46:06.072Z,15.05
2019-05-25T04:48:39.691Z,15.04
2019-05-25T04:51:11.580Z,14.94
2019-05-25T04:53:43.408Z,14.72
2019-05-25T04:56:14.940Z,14.71
2019-05-25T04:58:46.674Z,14.90
2019-05-25T05:01:22.415Z,14.75
2019-05-25T05:03:52.531Z,14.41
2019-05-25T05:06:24.200Z,14.40
2019-05-25T05:08:55.752Z,14.64
2019-05-25T05:11:27.592Z,14.83
2019-05-25T05:13:59.186Z,14.99
2019-05-25T05:16:30.782Z,15.07
2019-05-25T05:19:02.380Z,15.20
2019-05-25T05:21:35.165Z,15.29
2019-05-25T05:24:06.680Z,15.42
2019-05-25T05:26:52.829Z,15.44
2019-05-25T05:29:11.557Z,15.51
2019-05-25T05:31:44.713Z,15.56
2019-05-25T05:34:16.119Z,15.34
2019-05-25T05:36:49.257Z,15.42
2019-05-25T05:39:21.547Z,15.46
2019-05-25T05:41:55.973Z,15.45
2019-05-25T05:44:29.662Z,15.50
2019-05-25T05:47:03.315Z,15.55
2019-05-25T05:49:35.027Z,15.57
2019-05-25T05:52:06.702Z,15.57
2019-05-25T05:54:39.898Z,15.61
2019-05-25T05:57:12.804Z,15.67
2019-05-25T05:59:45.557Z,15.71
2019-05-25T06:02:19.125Z,15.60
2019-05-25T06:04:50.730Z,15.37
2019-05-25T06:07:22.498Z,15.57
2019-05-25T06:09:53.975Z,15.63
2019-05-25T06:12:25.501Z,15.67
2019-05-25T06:14:56.984Z,15.64
2019-05-25T06:17:28.591Z,15.36
2019-05-25T06:20:00.365Z,15.60
2019-05-25T06:22:31.913Z,15.73
2019-05-25T06:25:05.104Z,15.72
2019-05-25T06:27:36.737Z,15.72
2019-05-25T06:30:09.421Z,15.87
2019-05-25T06:32:40.931Z,15.92
2019-05-25T06:35:13.302Z,16.01
2019-05-25T06:37:44.820Z,16.00
2019-05-25T06:40:16.780Z,16.10
2019-05-25T06:42:48.715Z,16.14
2019-05-25T06:45:21.482Z,16.07
2019-05-25T06:47:52.979Z,15.78
2019-05-25T06:50:24.504Z,15.69
2019-05-25T06:52:58.022Z,15.93
2019-05-25T06:55:29.416Z,15.90
2019-05-25T06:58:00.972Z,15.98
2019-05-25T07:00:32.798Z,15.87
2019-05-25T07:03:04.307Z,15.80
2019-05-25T07:05:36.038Z,15.83
2019-05-25T07:08:08.211Z,15.74
2019-05-25T07:10:39.856Z,15.73
2019-05-25T07:13:11.315Z,15.76
2019-05-25T07:15:44.714Z,15.61
2019-05-25T07:18:16.307Z,15.79
2019-05-25T07:20:49.022Z,15.45
2019-05-25T07:23:20.579Z,15.24
2019-05-25T07:25:52.199Z,15.07
2019-05-25T07:28:23.708Z,14.86
2019-05-25T07:30:55.225Z,14.98
2019-05-25T07:33:29.104Z,15.00
2019-05-25T07:36:07.340Z,15.02
2019-05-25T07:38:36.005Z,15.19
2019-05-25T07:41:07.441Z,15.18
2019-05-25T07:43:39.238Z,15.16
2019-05-25T07:46:10.938Z,15.34
2019-05-25T07:48:42.648Z,15.36
2019-05-25T07:51:14.208Z,15.50
2019-05-25T07:53:46.120Z,15.69
2019-05-25T07:56:17.636Z,15.77
2019-05-25T07:58:49.256Z,15.86
2019-05-25T08:01:20.770Z,15.89
2019-05-25T08:03:53.726Z,15.77
2019-05-25T08:06:25.232Z,15.81
2019-05-25T08:08:56.783Z,15.90
2019-05-25T08:11:29.924Z,16.13
2019-05-25T08:14:01.494Z,16.25
2019-05-25T08:16:33.058Z,16.37
2019-05-25T08:19:04.611Z,16.45
2019-05-25T08:21:36.767Z,16.52
2019-05-25T08:24:08.307Z,16.56
2019-05-25T08:26:39.911Z,16.64
2019-05-25T08:29:11.834Z,16.71
2019-05-25T08:31:43.308Z,16.76
2019-05-25T08:34:14.852Z,16.86
2019-05-25T08:36:46.852Z,16.84
2019-05-25T08:39:18.749Z,16.89
2019-05-25T08:41:50.345Z,16.98
2019-05-25T08:44:24.751Z,17.13
2019-05-25T08:46:56.301Z,17.19
2019-05-25T08:49:27.872Z,17.04
2019-05-25T08:52:04.150Z,17.06
2019-05-25T08:54:34.681Z,17.00
2019-05-25T08:57:06.257Z,16.70
2019-05-25T08:59:37.962Z,16.81
2019-05-25T09:02:09.466Z,16.89
2019-05-25T09:04:41.129Z,17.22
2019-05-25T09:07:12.602Z,17.49
2019-05-25T09:09:44.740Z,17.84
2019-05-25T09:12:16.520Z,17.95
2019-05-25T09:14:48.222Z,18.06
2019-05-25T09:17:20.015Z,17.62
2019-05-25T09:19:53.216Z,16.83
2019-05-25T09:22:24.749Z,16.98
2019-05-25T09:24:56.270Z,16.53
2019-05-25T09:27:27.736Z,17.09
2019-05-25T09:29:59.452Z,17.31
2019-05-25T09:32:31.014Z,17.53
2019-05-25T09:35:02.546Z,17.71
2019-05-25T09:37:34.247Z,17.86
2019-05-25T09:40:06.744Z,17.95
2019-05-25T09:42:39.125Z,17.97
2019-05-25T09:45:14.168Z,18.04
2019-05-25T09:47:46.107Z,17.85
2019-05-25T09:50:18.289Z,17.91
2019-05-25T09:52:50.827Z,17.98
2019-05-25T09:55:24.464Z,17.80
2019-05-25T09:57:56.030Z,17.72
2019-05-25T10:00:28.161Z,17.95
2019-05-25T10:02:59.867Z,17.98
2019-05-25T10:05:31.445Z,17.56
2019-05-25T10:08:02.898Z,17.45
2019-05-25T10:10:34.436Z,17.44
2019-05-25T10:13:06.366Z,17.68
2019-05-25T10:15:38.067Z,17.57
2019-05-25T10:18:09.592Z,17.70
2019-05-25T10:20:41.433Z,17.92
2019-05-25T10:23:12.971Z,18.19
2019-05-25T10:25:44.511Z,18.17
2019-05-25T10:28:17.172Z,18.33
2019-05-25T10:30:49.766Z,18.52
2019-05-25T10:33:21.938Z,18.57
2019-05-25T10:35:53.613Z,18.54
2019-05-25T10:38:25.106Z,18.78
2019-05-25T10:40:58.631Z,18.99
2019-05-25T10:43:30.125Z,18.35
2019-05-25T10:46:01.640Z,18.64
2019-05-25T10:48:33.280Z,18.82
2019-05-25T10:51:04.826Z,19.17
2019-05-25T10:53:36.531Z,19.32
2019-05-25T10:56:08.086Z,19.41
2019-05-25T10:58:39.938Z,19.60
2019-05-25T11:01:12.491Z,19.75
2019-05-25T11:03:44.061Z,19.30
2019-05-25T11:06:15.550Z,18.83
2019-05-25T11:08:46.966Z,18.70
2019-05-25T11:11:21.687Z,18.05
2019-05-25T11:13:53.125Z,17.74
2019-05-25T11:16:25.947Z,17.82
2019-05-25T11:18:57.367Z,18.29
2019-05-25T11:21:29.052Z,18.40
2019-05-25T11:24:00.563Z,18.21
2019-05-25T11:26:32.089Z,18.59
2019-05-25T11:29:04.906Z,18.50
2019-05-25T11:31:36.732Z,19.12
2019-05-25T11:34:08.387Z,19.45
2019-05-25T11:36:39.947Z,19.79
2019-05-25T11:39:11.463Z,19.90
2019-05-25T11:41:43.022Z,20.16
2019-05-25T11:44:14.767Z,20.27
2019-05-25T11:46:46.319Z,20.44
2019-05-25T11:49:22.359Z,20.23
2019-05-25T11:51:51.662Z,20.54
2019-05-25T11:54:23.194Z,20.38
2019-05-25T11:56:55.312Z,20.61
2019-05-25T11:59:26.777Z,20.86
2019-05-25T12:01:58.357Z,20.25
2019-05-25T12:04:29.872Z,20.50
2019-05-25T12:07:01.514Z,20.44
2019-05-25T12:09:33.067Z,20.63
2019-05-25T12:12:04.604Z,20.78
2019-05-25T12:14:36.132Z,20.76
2019-05-25T12:17:07.665Z,20.75
2019-05-25T12:19:39.173Z,20.65
2019-05-25T12:22:10.729Z,20.25
2019-05-25T12:24:42.508Z,19.65
2019-05-25T12:27:14.166Z,19.48
2019-05-25T12:29:45.639Z,19.20
2019-05-25T12:32:17.605Z,18.87
2019-05-25T12:34:49.186Z,18.77
2019-05-25T12:37:20.818Z,18.52
2019-05-25T12:39:52.380Z,18.97
2019-05-25T12:42:24.616Z,18.64
2019-05-25T12:44:56.296Z,18.45
2019-05-25T12:47:29.467Z,18.45
2019-05-25T12:50:01.042Z,18.31
2019-05-25T12:52:35.511Z,18.59
2019-05-25T12:55:08.267Z,18.95
2019-05-25T12:57:40.197Z,18.78
2019-05-25T13:00:16.070Z,18.95
2019-05-25T13:02:45.924Z,18.82
2019-05-25T13:05:32.653Z,18.86
2019-05-25T13:07:50.860Z,18.48
2019-05-25T13:10:23.026Z,18.49
2019-05-25T13:12:57.845Z,18.73
2019-05-25T13:15:29.331Z,18.90
2019-05-25T13:18:01.116Z,18.70
2019-05-25T13:20:32.630Z,18.90
2019-05-25T13:23:05.558Z,18.87
2019-05-25T13:25:37.971Z,19.12
2019-05-25T13:28:12.618Z,19.30
2019-05-25T13:30:44.150Z,19.22
2019-05-25T13:33:15.981Z,19.36
2019-05-25T13:35:48.705Z,19.38
2019-05-25T13:38:20.223Z,19.44
2019-05-25T13:40:51.977Z,19.52
2019-05-25T13:43:23.717Z,19.26
2019-05-25T13:45:55.294Z,19.18
2019-05-25T13:48:26.929Z,19.44
2019-05-25T13:50:58.450Z,19.81
2019-05-25T13:53:32.940Z,19.89
2019-05-25T13:56:03.411Z,19.53
2019-05-25T13:58:35.147Z,19.50
2019-05-25T14:01:08.671Z,19.51
2019-05-25T14:03:40.295Z,19.93
2019-05-25T14:06:11.997Z,19.69
2019-05-25T14:08:43.498Z,20.06
2019-05-25T14:11:15.046Z,20.15
2019-05-25T14:13:46.536Z,20.35
2019-05-25T14:16:17.969Z,20.31
2019-05-25T14:18:49.803Z,20.59
2019-05-25T14:21:21.525Z,20.48
2019-05-25T14:23:55.004Z,20.60
2019-05-25T14:26:27.044Z,20.79
2019-05-25T14:28:58.528Z,20.95
2019-05-25T14:31:44.462Z,20.78
2019-05-25T14:34:04.565Z,20.95
2019-05-25T14:36:36.928Z,20.17
2019-05-25T14:39:10.778Z,20.24
2019-05-25T14:41:42.331Z,20.49
2019-05-25T14:44:13.799Z,20.69
2019-05-25T14:46:45.415Z,20.39
2019-05-25T14:49:17.020Z,20.28
2019-05-25T14:51:48.605Z,20.11
2019-05-25T14:54:20.466Z,20.26
2019-05-25T14:56:52.020Z,19.99
2019-05-25T14:59:23.654Z,19.92
2019-05-25T15:02:02.329Z,20.23
2019-05-25T15:04:28.783Z,20.42
2019-05-25T15:07:00.402Z,20.20
2019-05-25T15:09:31.962Z,20.24
2019-05-25T15:12:03.550Z,20.10
2019-05-25T15:14:35.090Z,20.12
2019-05-25T15:17:07.083Z,19.90
2019-05-25T15:19:38.622Z,20.17
2019-05-25T15:22:10.741Z,19.77
2019-05-25T15:24:42.593Z,19.84
2019-05-25T15:27:14.177Z,19.78
2019-05-25T15:29:45.948Z,19.86
2019-05-25T15:32:20.438Z,19.58
2019-05-25T15:34:50.828Z,19.62
2019-05-25T15:37:22.382Z,19.61
2019-05-25T15:39:57.326Z,19.82
2019-05-25T15:42:28.908Z,19.64
2019-05-25T15:45:03.261Z,19.80
2019-05-25T15:47:35.940Z,19.85
2019-05-25T15:50:08.878Z,20.00
2019-05-25T15:52:42.232Z,19.98
2019-05-25T15:55:14.268Z,19.98
2019-05-25T15:57:45.897Z,19.79
2019-05-25T16:00:18.735Z,19.98
2019-05-25T16:02:51.145Z,20.25
2019-05-25T16:05:22.817Z,20.38
2019-05-25T16:07:54.895Z,20.02
2019-05-25T16:10:27.070Z,20.06
2019-05-25T16:12:58.816Z,20.12
2019-05-25T16:15:30.659Z,20.04
2019-05-25T16:18:02.190Z,20.16
2019-05-25T16:20:33.817Z,19.90
2019-05-25T16:23:05.355Z,19.83
2019-05-25T16:25:36.920Z,19.68
2019-05-25T16:28:08.479Z,19.84
2019-05-25T16:30:40.065Z,19.99
2019-05-25T16:33:14.089Z,20.01
2019-05-25T16:35:44.920Z,19.99
2019-05-25T16:38:16.560Z,19.89
2019-05-25T16:40:49.314Z,19.48
2019-05-25T16:43:20.956Z,19.87
2019-05-25T16:45:52.676Z,19.67
2019-05-25T16:48:24.597Z,19.66
2019-05-25T16:50:57.862Z,19.68
2019-05-25T16:53:30.242Z,19.61
2019-05-25T16:56:02.067Z,19.55
2019-05-25T16:58:33.655Z,19.30
2019-05-25T17:01:05.239Z,19.07
2019-05-25T17:03:37.315Z,18.97
2019-05-25T17:06:08.829Z,19.04
2019-05-25T17:08:41.815Z,18.88
2019-05-25T17:11:15.030Z,18.72
2019-05-25T17:13:46.967Z,18.77
2019-05-25T17:16:18.551Z,18.68
2019-05-25T17:18:52.088Z,18.53
2019-05-25T17:21:25.309Z,18.31
2019-05-25T17:23:56.900Z,18.17
2019-05-25T17:26:28.507Z,18.18
2019-05-25T17:29:00.766Z,18.43
2019-05-25T17:31:32.421Z,18.43
2019-05-25T17:34:03.975Z,18.16
2019-05-25T17:36:35.577Z,18.24
2019-05-25T17:39:08.693Z,18.17
2019-05-25T17:41:40.374Z,18.01
2019-05-25T17:44:11.857Z,18.06
2019-05-25T17:46:43.418Z,17.87
2019-05-25T17:49:14.906Z,17.99
2019-05-25T17:51:46.599Z,18.16
2019-05-25T17:54:18.153Z,18.39
2019-05-25T17:56:49.678Z,18.28
2019-05-25T17:59:21.174Z,18.36
2019-05-25T18:01:52.715Z,18.25
2019-05-25T18:04:25.300Z,18.17
2019-05-25T18:06:56.976Z,18.26
2019-05-25T18:09:28.486Z,18.31
2019-05-25T18:11:59.971Z,18.00
2019-05-25T18:14:31.723Z,18.36
2019-05-25T18:17:03.453Z,18.33
2019-05-25T18:19:34.982Z,18.23
2019-05-25T18:22:06.569Z,18.33
2019-05-25T18:24:38.148Z,18.40
2019-05-25T18:27:09.669Z,18.22
2019-05-25T18:29:42.454Z,18.23
2019-05-25T18:32:14.239Z,18.38
2019-05-25T18:34:45.894Z,18.27
2019-05-25T18:37:17.441Z,18.32
2019-05-25T18:39:49.101Z,18.25
2019-05-25T18:42:20.691Z,18.37
2019-05-25T18:44:52.463Z,18.40
2019-05-25T18:47:23.903Z,18.46
2019-05-25T18:49:55.492Z,18.44
2019-05-25T18:52:27.236Z,18.57
2019-05-25T18:54:59.638Z,18.60
2019-05-25T18:57:31.371Z,18.50
2019-05-25T19:00:03.857Z,18.43
2019-05-25T19:02:36.536Z,18.37
2019-05-25T19:05:10.175Z,18.21
2019-05-25T19:07:42.006Z,18.20
2019-05-25T19:10:14.092Z,18.12
2019-05-25T19:12:45.641Z,18.03
2019-05-25T19:15:18.457Z,17.92
2019-05-25T19:17:50.089Z,17.86
2019-05-25T19:20:21.878Z,17.77
2019-05-25T19:22:53.547Z,17.86
2019-05-25T19:25:25.310Z,17.66
2019-05-25T19:27:56.862Z,17.48
2019-05-25T19:30:28.378Z,17.41
2019-05-25T19:32:59.911Z,17.27
2019-05-25T19:35:31.422Z,17.25
2019-05-25T19:38:03.063Z,17.00
2019-05-25T19:40:34.792Z,16.84
2019-05-25T19:43:06.328Z,16.77
2019-05-25T19:45:37.903Z,16.70
2019-05-25T19:48:09.450Z,16.66
2019-05-25T19:50:41.024Z,16.43
2019-05-25T19:53:12.540Z,16.41
2019-05-25T19:55:44.095Z,16.39
2019-05-25T19:58:15.793Z,16.34
2019-05-25T20:00:47.340Z,16.12
2019-05-25T20:03:18.877Z,16.02
2019-05-25T20:05:51.589Z,16.09
2019-05-25T20:08:23.236Z,16.11
2019-05-25T20:10:55.821Z,16.20
2019-05-25T20:13:27.856Z,16.25
2019-05-25T20:15:59.614Z,16.22
2019-05-25T20:18:31.129Z,16.20
2019-05-25T20:21:02.579Z,16.30
2019-05-25T20:23:33.992Z,16.29
2019-05-25T20:26:05.748Z,16.18
2019-05-25T20:28:37.175Z,16.11
2019-05-25T20:31:10.195Z,16.00
2019-05-25T20:33:41.658Z,16.12
2019-05-25T20:36:16.014Z,16.05
2019-05-25T20:38:47.496Z,16.12
2019-05-25T20:41:19.088Z,16.04
2019-05-25T20:43:52.885Z,16.06
2019-05-25T20:46:24.455Z,16.10
2019-05-25T20:48:56.126Z,16.10
2019-05-25T20:51:27.656Z,16.11
2019-05-25T20:53:59.444Z,16.10
2019-05-25T20:56:31.525Z,16.17
2019-05-25T20:59:03.042Z,16.20
2019-05-25T21:01:34.670Z,16.27
2019-05-25T21:04:06.450Z,16.18
2019-05-25T21:06:38.146Z,16.09
2019-05-25T21:09:10.005Z,16.06
2019-05-25T21:11:41.572Z,16.13
2019-05-25T21:14:13.099Z,16.16
2019-05-25T21:16:46.225Z,16.14
2019-05-25T21:19:17.840Z,16.13
2019-05-25T21:21:49.405Z,16.00
2019-05-25T21:24:21.261Z,15.98
2019-05-25T21:26:52.814Z,16.04
2019-05-25T21:29:24.918Z,16.08
2019-05-25T21:31:56.601Z,16.09
2019-05-25T21:34:28.064Z,15.80
2019-05-25T21:36:59.494Z,15.41
2019-05-25T21:39:31.011Z,15.29
2019-05-25T21:42:02.846Z,15.14
2019-05-25T21:44:34.373Z,15.19
2019-05-25T21:47:05.907Z,15.12
2019-05-25T21:49:37.774Z,15.01
2019-05-25T21:52:09.346Z,14.90
2019-05-25T21:54:40.936Z,14.94
2019-05-25T21:57:12.741Z,14.95
2019-05-25T21:59:44.437Z,14.98
2019-05-25T22:02:15.969Z,15.04
2019-05-25T22:04:47.780Z,15.05
2019-05-25T22:07:19.381Z,15.05
2019-05-25T22:09:50.944Z,15.06
2019-05-25T22:12:22.621Z,14.94
2019-05-25T22:14:54.554Z,14.95
2019-05-25T22:17:26.442Z,14.90
2019-05-25T22:19:58.056Z,14.80
2019-05-25T22:22:29.613Z,14.69
2019-05-25T22:25:01.116Z,14.62
2019-05-25T22:27:32.688Z,14.59
2019-05-25T22:30:04.758Z,14.58
2019-05-25T22:32:36.340Z,14.54
2019-05-25T22:35:08.556Z,14.57
2019-05-25T22:37:40.913Z,14.58
2019-05-25T22:40:12.427Z,14.57
2019-05-25T22:42:44.024Z,14.56
2019-05-25T22:45:15.604Z,14.55
2019-05-25T22:47:47.367Z,14.52
2019-05-25T22:50:20.444Z,14.47
2019-05-25T22:52:51.985Z,14.39
2019-05-25T22:55:23.577Z,14.39
2019-05-25T22:57:56.258Z,14.32
2019-05-25T23:00:27.837Z,14.28
2019-05-25T23:03:00.180Z,14.31
2019-05-25T23:05:31.671Z,14.33
2019-05-25T23:08:04.397Z,14.30
2019-05-25T23:10:35.798Z,14.18
2019-05-25T23:13:07.457Z,14.17
2019-05-25T23:15:38.967Z,14.12
2019-05-25T23:18:10.555Z,14.08
2019-05-25T23:20:42.256Z,14.00
2019-05-25T23:23:15.017Z,13.95
2019-05-25T23:25:46.601Z,14.02
2019-05-25T23:28:18.108Z,14.01
2019-05-25T23:30:49.619Z,13.91
2019-05-25T23:33:21.158Z,13.99
2019-05-25T23:35:52.651Z,14.11
2019-05-25T23:38:26.303Z,14.22
2019-05-25T23:40:58.084Z,14.32
2019-05-25T23:43:29.632Z,14.21
2019-05-25T23:46:01.136Z,14.13
2019-05-25T23:48:33.386Z,14.14
2019-05-25T23:51:04.925Z,14.05
2019-05-25T23:53:36.432Z,14.05
2019-05-25T23:56:07.943Z,14.16
2019-05-25T23:58:42.523Z,14.22
